sensor_id;sensor_type;location;lat;lon;timestamp;P1;durP1;ratioP1;P2;durP2;ratioP2
73136;SDS011;67767;45.636;11.756;2023-03-01T00:02:05;17.30;;;7.40;;
73136;SDS011;67767;45.636;11.756;2023-03-01T00:04:31;17.77;;;7.57;;
73136;SDS011;67767;45.636;11.756;2023-03-01T00:06:57;15.65;;;7.20;;
73136;SDS011;67767;45.636;11.756;2023-03-01T00:09:23;13.83;;;6.60;;
73136;SDS011;67767;45.636;11.756;2023-03-01T00:11:49;17.20;;;7.88;;
73136;SDS011;67767;45.636;11.756;2023-03-01T00:14:15;16.45;;;7.13;;
73136;SDS011;67767;45.636;11.756;2023-03-01T00:16:42;14.50;;;6.40;;
73136;SDS011;67767;45.636;11.756;2023-03-01T00:19:10;16.70;;;6.93;;
73136;SDS011;67767;45.636;11.756;2023-03-01T00:21:47;15.43;;;7.43;;
73136;SDS011;67767;45.636;11.756;2023-03-01T00:24:13;15.00;;;7.43;;
73136;SDS011;67767;45.636;11.756;2023-03-01T00:26:39;15.60;;;6.63;;
73136;SDS011;67767;45.636;11.756;2023-03-01T00:29:05;16.20;;;6.80;;
73136;SDS011;67767;45.636;11.756;2023-03-01T00:31:31;17.25;;;6.75;;
73136;SDS011;67767;45.636;11.756;2023-03-01T00:33:59;14.93;;;6.93;;
73136;SDS011;67767;45.636;11.756;2023-03-01T00:36:28;13.98;;;6.28;;
73136;SDS011;67767;45.636;11.756;2023-03-01T00:38:55;16.77;;;7.13;;
73136;SDS011;67767;45.636;11.756;2023-03-01T00:41:22;15.80;;;7.40;;
73136;SDS011;67767;45.636;11.756;2023-03-01T00:43:48;14.88;;;6.97;;
73136;SDS011;67767;45.636;11.756;2023-03-01T00:46:16;15.77;;;6.72;;
73136;SDS011;67767;45.636;11.756;2023-03-01T00:48:43;16.33;;;7.25;;
73136;SDS011;67767;45.636;11.756;2023-03-01T00:51:10;15.43;;;7.03;;
73136;SDS011;67767;45.636;11.756;2023-03-01T00:53:38;17.02;;;7.38;;
73136;SDS011;67767;45.636;11.756;2023-03-01T00:56:05;28.40;;;11.43;;
73136;SDS011;67767;45.636;11.756;2023-03-01T00:58:32;30.35;;;11.70;;
73136;SDS011;67767;45.636;11.756;2023-03-01T01:00:59;20.90;;;9.10;;
73136;SDS011;67767;45.636;11.756;2023-03-01T01:03:25;17.30;;;7.60;;
73136;SDS011;67767;45.636;11.756;2023-03-01T01:05:51;17.00;;;7.40;;
73136;SDS011;67767;45.636;11.756;2023-03-01T01:08:17;18.08;;;8.13;;
73136;SDS011;67767;45.636;11.756;2023-03-01T01:10:44;15.65;;;6.78;;
73136;SDS011;67767;45.636;11.756;2023-03-01T01:13:10;17.35;;;7.80;;
73136;SDS011;67767;45.636;11.756;2023-03-01T01:15:36;18.73;;;8.20;;
73136;SDS011;67767;45.636;11.756;2023-03-01T01:18:02;18.05;;;7.78;;
73136;SDS011;67767;45.636;11.756;2023-03-01T01:20:28;17.17;;;7.43;;
73136;SDS011;67767;45.636;11.756;2023-03-01T01:22:54;14.93;;;7.90;;
73136;SDS011;67767;45.636;11.756;2023-03-01T01:25:19;17.13;;;7.70;;
73136;SDS011;67767;45.636;11.756;2023-03-01T01:27:45;15.87;;;7.60;;
73136;SDS011;67767;45.636;11.756;2023-03-01T01:30:11;18.30;;;8.70;;
73136;SDS011;67767;45.636;11.756;2023-03-01T01:32:37;16.85;;;7.75;;
73136;SDS011;67767;45.636;11.756;2023-03-01T01:35:03;20.13;;;8.57;;
73136;SDS011;67767;45.636;11.756;2023-03-01T01:37:29;19.40;;;8.00;;
73136;SDS011;67767;45.636;11.756;2023-03-01T01:39:58;18.25;;;7.75;;
73136;SDS011;67767;45.636;11.756;2023-03-01T01:42:25;18.38;;;8.40;;
73136;SDS011;67767;45.636;11.756;2023-03-01T01:47:57;18.05;;;8.13;;
73136;SDS011;67767;45.636;11.756;2023-03-01T01:50:38;19.77;;;8.07;;
73136;SDS011;67767;45.636;11.756;2023-03-01T01:53:12;18.52;;;7.82;;
73136;SDS011;67767;45.636;11.756;2023-03-01T01:55:48;16.55;;;8.23;;
73136;SDS011;67767;45.636;11.756;2023-03-01T01:58:18;22.77;;;10.23;;
73136;SDS011;67767;45.636;11.756;2023-03-01T02:00:46;22.35;;;10.23;;
73136;SDS011;67767;45.636;11.756;2023-03-01T02:03:14;20.45;;;8.38;;
73136;SDS011;67767;45.636;11.756;2023-03-01T02:06:03;17.77;;;7.85;;
73136;SDS011;67767;45.636;11.756;2023-03-01T02:08:30;20.13;;;8.43;;
73136;SDS011;67767;45.636;11.756;2023-03-01T02:10:58;17.77;;;7.93;;
73136;SDS011;67767;45.636;11.756;2023-03-01T02:13:25;18.15;;;7.97;;
73136;SDS011;67767;45.636;11.756;2023-03-01T02:15:51;17.80;;;7.43;;
73136;SDS011;67767;45.636;11.756;2023-03-01T02:18:18;16.38;;;6.97;;
73136;SDS011;67767;45.636;11.756;2023-03-01T02:23:29;19.25;;;8.43;;
73136;SDS011;67767;45.636;11.756;2023-03-01T02:28:35;16.80;;;7.97;;
73136;SDS011;67767;45.636;11.756;2023-03-01T02:31:03;17.43;;;7.73;;
73136;SDS011;67767;45.636;11.756;2023-03-01T02:33:50;19.48;;;7.97;;
73136;SDS011;67767;45.636;11.756;2023-03-01T02:36:18;16.10;;;7.25;;
73136;SDS011;67767;45.636;11.756;2023-03-01T02:38:51;17.15;;;8.00;;
73136;SDS011;67767;45.636;11.756;2023-03-01T02:41:20;19.38;;;7.72;;
73136;SDS011;67767;45.636;11.756;2023-03-01T02:43:48;21.07;;;7.80;;
73136;SDS011;67767;45.636;11.756;2023-03-01T02:46:16;17.40;;;7.65;;
73136;SDS011;67767;45.636;11.756;2023-03-01T02:48:44;17.33;;;7.55;;
73136;SDS011;67767;45.636;11.756;2023-03-01T02:51:22;17.27;;;7.60;;
73136;SDS011;67767;45.636;11.756;2023-03-01T02:56:39;18.48;;;7.18;;
73136;SDS011;67767;45.636;11.756;2023-03-01T02:59:06;18.58;;;7.78;;
73136;SDS011;67767;45.636;11.756;2023-03-01T03:01:33;16.73;;;7.20;;
73136;SDS011;67767;45.636;11.756;2023-03-01T03:04:06;18.63;;;7.30;;
73136;SDS011;67767;45.636;11.756;2023-03-01T03:06:33;16.48;;;7.25;;
73136;SDS011;67767;45.636;11.756;2023-03-01T03:08:59;15.38;;;6.88;;
73136;SDS011;67767;45.636;11.756;2023-03-01T03:11:25;14.52;;;6.35;;
73136;SDS011;67767;45.636;11.756;2023-03-01T03:13:51;15.50;;;6.70;;
73136;SDS011;67767;45.636;11.756;2023-03-01T03:16:17;14.35;;;6.10;;
73136;SDS011;67767;45.636;11.756;2023-03-01T03:18:43;15.63;;;7.05;;
73136;SDS011;67767;45.636;11.756;2023-03-01T03:21:10;14.85;;;6.65;;
73136;SDS011;67767;45.636;11.756;2023-03-01T03:23:37;18.13;;;6.30;;
73136;SDS011;67767;45.636;11.756;2023-03-01T03:26:04;16.27;;;6.97;;
73136;SDS011;67767;45.636;11.756;2023-03-01T03:28:31;13.13;;;6.18;;
73136;SDS011;67767;45.636;11.756;2023-03-01T03:30:57;14.30;;;6.10;;
73136;SDS011;67767;45.636;11.756;2023-03-01T03:33:23;16.43;;;6.50;;
73136;SDS011;67767;45.636;11.756;2023-03-01T03:35:50;13.25;;;5.68;;
73136;SDS011;67767;45.636;11.756;2023-03-01T03:38:16;15.00;;;5.93;;
73136;SDS011;67767;45.636;11.756;2023-03-01T03:41:07;12.80;;;5.68;;
73136;SDS011;67767;45.636;11.756;2023-03-01T03:43:34;19.07;;;6.20;;
73136;SDS011;67767;45.636;11.756;2023-03-01T03:46:01;16.23;;;5.70;;
73136;SDS011;67767;45.636;11.756;2023-03-01T03:48:34;17.20;;;6.63;;
73136;SDS011;67767;45.636;11.756;2023-03-01T03:51:01;14.55;;;6.68;;
73136;SDS011;67767;45.636;11.756;2023-03-01T03:53:30;14.10;;;6.18;;
73136;SDS011;67767;45.636;11.756;2023-03-01T03:55:56;14.30;;;6.20;;
73136;SDS011;67767;45.636;11.756;2023-03-01T03:58:23;14.18;;;5.80;;
73136;SDS011;67767;45.636;11.756;2023-03-01T04:00:51;14.90;;;6.57;;
73136;SDS011;67767;45.636;11.756;2023-03-01T04:03:21;16.35;;;5.85;;
73136;SDS011;67767;45.636;11.756;2023-03-01T04:05:48;19.00;;;6.43;;
73136;SDS011;67767;45.636;11.756;2023-03-01T04:08:15;14.67;;;6.07;;
73136;SDS011;67767;45.636;11.756;2023-03-01T04:10:45;16.70;;;6.55;;
73136;SDS011;67767;45.636;11.756;2023-03-01T04:13:13;14.15;;;5.93;;
73136;SDS011;67767;45.636;11.756;2023-03-01T04:15:42;16.65;;;7.15;;
73136;SDS011;67767;45.636;11.756;2023-03-01T04:18:12;14.85;;;7.05;;
73136;SDS011;67767;45.636;11.756;2023-03-01T04:20:38;15.73;;;6.93;;
73136;SDS011;67767;45.636;11.756;2023-03-01T04:23:05;14.50;;;7.25;;
73136;SDS011;67767;45.636;11.756;2023-03-01T04:25:54;15.93;;;6.70;;
73136;SDS011;67767;45.636;11.756;2023-03-01T04:28:32;14.70;;;6.03;;
73136;SDS011;67767;45.636;11.756;2023-03-01T04:31:02;15.07;;;6.10;;
73136;SDS011;67767;45.636;11.756;2023-03-01T04:33:38;16.35;;;8.48;;
73136;SDS011;67767;45.636;11.756;2023-03-01T04:36:05;13.32;;;6.07;;
73136;SDS011;67767;45.636;11.756;2023-03-01T04:38:33;10.80;;;5.57;;
73136;SDS011;67767;45.636;11.756;2023-03-01T04:41:02;13.38;;;6.07;;
73136;SDS011;67767;45.636;11.756;2023-03-01T04:43:29;15.43;;;5.57;;
73136;SDS011;67767;45.636;11.756;2023-03-01T04:45:54;17.90;;;6.32;;
73136;SDS011;67767;45.636;11.756;2023-03-01T04:48:24;17.20;;;6.32;;
73136;SDS011;67767;45.636;11.756;2023-03-01T04:50:50;12.67;;;5.73;;
73136;SDS011;67767;45.636;11.756;2023-03-01T04:53:16;13.27;;;5.07;;
73136;SDS011;67767;45.636;11.756;2023-03-01T04:55:43;11.43;;;5.43;;
73136;SDS011;67767;45.636;11.756;2023-03-01T04:58:09;12.75;;;5.05;;
73136;SDS011;67767;45.636;11.756;2023-03-01T05:00:35;14.93;;;6.77;;
73136;SDS011;67767;45.636;11.756;2023-03-01T05:03:00;17.75;;;9.13;;
73136;SDS011;67767;45.636;11.756;2023-03-01T05:05:27;13.87;;;7.60;;
73136;SDS011;67767;45.636;11.756;2023-03-01T05:07:57;15.18;;;7.28;;
73136;SDS011;67767;45.636;11.756;2023-03-01T05:10:26;17.20;;;5.82;;
73136;SDS011;67767;45.636;11.756;2023-03-01T05:12:57;11.68;;;5.20;;
73136;SDS011;67767;45.636;11.756;2023-03-01T05:15:24;12.77;;;5.37;;
73136;SDS011;67767;45.636;11.756;2023-03-01T05:17:55;11.90;;;5.78;;
73136;SDS011;67767;45.636;11.756;2023-03-01T05:20:24;14.35;;;6.10;;
73136;SDS011;67767;45.636;11.756;2023-03-01T05:22:51;15.80;;;7.25;;
73136;SDS011;67767;45.636;11.756;2023-03-01T05:25:22;13.23;;;6.03;;
73136;SDS011;67767;45.636;11.756;2023-03-01T05:27:48;13.53;;;6.03;;
73136;SDS011;67767;45.636;11.756;2023-03-01T05:30:14;14.80;;;7.15;;
73136;SDS011;67767;45.636;11.756;2023-03-01T05:32:41;11.35;;;5.97;;
73136;SDS011;67767;45.636;11.756;2023-03-01T05:35:11;10.17;;;4.20;;
73136;SDS011;67767;45.636;11.756;2023-03-01T05:37:42;8.98;;;3.90;;
73136;SDS011;67767;45.636;11.756;2023-03-01T05:40:10;9.05;;;4.13;;
73136;SDS011;67767;45.636;11.756;2023-03-01T05:42:43;9.98;;;4.80;;
73136;SDS011;67767;45.636;11.756;2023-03-01T05:45:10;11.77;;;4.57;;
73136;SDS011;67767;45.636;11.756;2023-03-01T05:47:37;11.57;;;4.80;;
73136;SDS011;67767;45.636;11.756;2023-03-01T05:50:10;13.45;;;5.22;;
73136;SDS011;67767;45.636;11.756;2023-03-01T05:52:44;14.38;;;6.25;;
73136;SDS011;67767;45.636;11.756;2023-03-01T05:55:14;16.00;;;6.38;;
73136;SDS011;67767;45.636;11.756;2023-03-01T05:57:44;19.92;;;9.00;;
73136;SDS011;67767;45.636;11.756;2023-03-01T06:00:10;19.30;;;7.80;;
73136;SDS011;67767;45.636;11.756;2023-03-01T06:02:37;27.90;;;11.63;;
73136;SDS011;67767;45.636;11.756;2023-03-01T06:05:04;25.02;;;10.52;;
73136;SDS011;67767;45.636;11.756;2023-03-01T06:07:31;26.23;;;11.88;;
73136;SDS011;67767;45.636;11.756;2023-03-01T06:09:57;20.55;;;9.73;;
73136;SDS011;67767;45.636;11.756;2023-03-01T06:12:23;17.20;;;8.20;;
73136;SDS011;67767;45.636;11.756;2023-03-01T06:14:48;20.67;;;9.40;;
73136;SDS011;67767;45.636;11.756;2023-03-01T06:17:14;28.00;;;11.13;;
73136;SDS011;67767;45.636;11.756;2023-03-01T06:19:40;17.17;;;7.77;;
73136;SDS011;67767;45.636;11.756;2023-03-01T06:22:05;15.77;;;7.40;;
73136;SDS011;67767;45.636;11.756;2023-03-01T06:24:31;16.63;;;7.18;;
73136;SDS011;67767;45.636;11.756;2023-03-01T06:26:58;15.60;;;6.90;;
73136;SDS011;67767;45.636;11.756;2023-03-01T06:29:23;14.17;;;6.20;;
73136;SDS011;67767;45.636;11.756;2023-03-01T06:31:49;12.20;;;5.70;;
73136;SDS011;67767;45.636;11.756;2023-03-01T06:34:15;13.47;;;5.63;;
73136;SDS011;67767;45.636;11.756;2023-03-01T06:36:41;13.82;;;7.00;;
73136;SDS011;67767;45.636;11.756;2023-03-01T06:39:06;16.03;;;6.30;;
73136;SDS011;67767;45.636;11.756;2023-03-01T06:41:32;13.30;;;6.45;;
73136;SDS011;67767;45.636;11.756;2023-03-01T06:43:59;16.52;;;6.43;;
73136;SDS011;67767;45.636;11.756;2023-03-01T06:46:25;14.63;;;6.20;;
73136;SDS011;67767;45.636;11.756;2023-03-01T06:48:50;11.80;;;5.97;;
73136;SDS011;67767;45.636;11.756;2023-03-01T06:51:16;13.95;;;6.70;;
73136;SDS011;67767;45.636;11.756;2023-03-01T06:53:42;15.77;;;6.87;;
73136;SDS011;67767;45.636;11.756;2023-03-01T06:56:07;19.30;;;8.00;;
73136;SDS011;67767;45.636;11.756;2023-03-01T06:58:33;15.82;;;7.28;;
73136;SDS011;67767;45.636;11.756;2023-03-01T07:00:59;13.60;;;6.60;;
73136;SDS011;67767;45.636;11.756;2023-03-01T07:03:24;21.43;;;7.97;;
73136;SDS011;67767;45.636;11.756;2023-03-01T07:05:50;19.25;;;7.90;;
73136;SDS011;67767;45.636;11.756;2023-03-01T07:08:17;17.33;;;7.57;;
73136;SDS011;67767;45.636;11.756;2023-03-01T07:10:43;16.50;;;7.93;;
73136;SDS011;67767;45.636;11.756;2023-03-01T07:13:09;18.35;;;8.38;;
73136;SDS011;67767;45.636;11.756;2023-03-01T07:15:35;19.63;;;9.10;;
73136;SDS011;67767;45.636;11.756;2023-03-01T07:18:01;19.27;;;9.20;;
73136;SDS011;67767;45.636;11.756;2023-03-01T07:20:26;20.67;;;9.53;;
73136;SDS011;67767;45.636;11.756;2023-03-01T07:22:53;20.73;;;10.77;;
73136;SDS011;67767;45.636;11.756;2023-03-01T07:25:19;19.65;;;10.38;;
73136;SDS011;67767;45.636;11.756;2023-03-01T07:27:54;17.83;;;8.60;;
73136;SDS011;67767;45.636;11.756;2023-03-01T07:30:20;17.60;;;8.47;;
73136;SDS011;67767;45.636;11.756;2023-03-01T07:32:46;17.02;;;8.05;;
73136;SDS011;67767;45.636;11.756;2023-03-01T07:35:12;18.75;;;7.93;;
73136;SDS011;67767;45.636;11.756;2023-03-01T07:37:39;14.80;;;7.50;;
73136;SDS011;67767;45.636;11.756;2023-03-01T07:40:05;14.00;;;7.07;;
73136;SDS011;67767;45.636;11.756;2023-03-01T07:42:32;14.50;;;7.05;;
73136;SDS011;67767;45.636;11.756;2023-03-01T07:44:58;15.17;;;6.73;;
73136;SDS011;67767;45.636;11.756;2023-03-01T07:47:23;15.40;;;6.88;;
73136;SDS011;67767;45.636;11.756;2023-03-01T07:49:49;16.73;;;6.77;;
73136;SDS011;67767;45.636;11.756;2023-03-01T07:52:14;17.97;;;7.77;;
73136;SDS011;67767;45.636;11.756;2023-03-01T07:54:42;15.53;;;6.30;;
73136;SDS011;67767;45.636;11.756;2023-03-01T07:57:09;13.23;;;6.57;;
73136;SDS011;67767;45.636;11.756;2023-03-01T07:59:35;12.98;;;5.43;;
73136;SDS011;67767;45.636;11.756;2023-03-01T08:02:01;14.13;;;5.83;;
73136;SDS011;67767;45.636;11.756;2023-03-01T08:04:26;12.77;;;6.15;;
73136;SDS011;67767;45.636;11.756;2023-03-01T08:06:52;18.87;;;6.70;;
73136;SDS011;67767;45.636;11.756;2023-03-01T08:09:19;15.52;;;7.38;;
73136;SDS011;67767;45.636;11.756;2023-03-01T08:11:45;14.13;;;6.25;;
73136;SDS011;67767;45.636;11.756;2023-03-01T08:14:11;17.40;;;6.70;;
73136;SDS011;67767;45.636;11.756;2023-03-01T08:16:37;20.73;;;7.30;;
73136;SDS011;67767;45.636;11.756;2023-03-01T08:19:06;11.90;;;5.77;;
73136;SDS011;67767;45.636;11.756;2023-03-01T08:21:34;13.80;;;6.68;;
73136;SDS011;67767;45.636;11.756;2023-03-01T08:24:06;16.10;;;7.07;;
73136;SDS011;67767;45.636;11.756;2023-03-01T08:26:32;13.35;;;5.60;;
73136;SDS011;67767;45.636;11.756;2023-03-01T08:28:59;10.07;;;5.00;;
73136;SDS011;67767;45.636;11.756;2023-03-01T08:31:35;11.27;;;4.72;;
73136;SDS011;67767;45.636;11.756;2023-03-01T08:34:04;12.90;;;5.53;;
73136;SDS011;67767;45.636;11.756;2023-03-01T08:36:36;12.88;;;5.40;;
73136;SDS011;67767;45.636;11.756;2023-03-01T08:39:04;11.48;;;5.25;;
73136;SDS011;67767;45.636;11.756;2023-03-01T08:41:30;11.27;;;5.30;;
73136;SDS011;67767;45.636;11.756;2023-03-01T08:43:56;8.68;;;4.40;;
73136;SDS011;67767;45.636;11.756;2023-03-01T08:46:27;12.55;;;5.82;;
73136;SDS011;67767;45.636;11.756;2023-03-01T08:49:04;12.90;;;5.13;;
73136;SDS011;67767;45.636;11.756;2023-03-01T08:51:35;13.63;;;5.63;;
73136;SDS011;67767;45.636;11.756;2023-03-01T08:54:11;11.18;;;5.07;;
73136;SDS011;67767;45.636;11.756;2023-03-01T08:56:39;18.17;;;6.10;;
73136;SDS011;67767;45.636;11.756;2023-03-01T08:59:05;11.60;;;5.43;;
73136;SDS011;67767;45.636;11.756;2023-03-01T09:01:31;10.70;;;5.10;;
73136;SDS011;67767;45.636;11.756;2023-03-01T09:03:57;12.45;;;5.05;;
73136;SDS011;67767;45.636;11.756;2023-03-01T09:06:23;10.70;;;5.13;;
73136;SDS011;67767;45.636;11.756;2023-03-01T09:08:49;11.50;;;5.10;;
73136;SDS011;67767;45.636;11.756;2023-03-01T09:11:16;8.63;;;4.30;;
73136;SDS011;67767;45.636;11.756;2023-03-01T09:13:44;10.68;;;4.75;;
73136;SDS011;67767;45.636;11.756;2023-03-01T09:16:12;11.50;;;4.80;;
73136;SDS011;67767;45.636;11.756;2023-03-01T09:18:40;10.30;;;4.07;;
73136;SDS011;67767;45.636;11.756;2023-03-01T09:21:07;10.30;;;4.03;;
73136;SDS011;67767;45.636;11.756;2023-03-01T09:23:36;9.33;;;4.00;;
73136;SDS011;67767;45.636;11.756;2023-03-01T09:26:04;12.25;;;4.10;;
73136;SDS011;67767;45.636;11.756;2023-03-01T09:28:34;10.98;;;3.92;;
73136;SDS011;67767;45.636;11.756;2023-03-01T09:31:01;8.98;;;3.90;;
73136;SDS011;67767;45.636;11.756;2023-03-01T09:33:28;8.27;;;3.30;;
73136;SDS011;67767;45.636;11.756;2023-03-01T09:35:58;6.17;;;2.70;;
73136;SDS011;67767;45.636;11.756;2023-03-01T09:38:25;10.88;;;3.30;;
73136;SDS011;67767;45.636;11.756;2023-03-01T09:40:51;9.85;;;3.88;;
73136;SDS011;67767;45.636;11.756;2023-03-01T09:45:52;11.10;;;3.72;;
73136;SDS011;67767;45.636;11.756;2023-03-01T09:48:22;7.57;;;3.47;;
73136;SDS011;67767;45.636;11.756;2023-03-01T09:50:51;8.95;;;3.58;;
73136;SDS011;67767;45.636;11.756;2023-03-01T09:53:25;8.50;;;4.03;;
73136;SDS011;67767;45.636;11.756;2023-03-01T10:04:26;8.65;;;3.17;;
73136;SDS011;67767;45.636;11.756;2023-03-01T10:09:39;8.00;;;3.40;;
73136;SDS011;67767;45.636;11.756;2023-03-01T10:12:31;7.75;;;3.30;;
73136;SDS011;67767;45.636;11.756;2023-03-01T10:15:15;8.00;;;3.53;;
73136;SDS011;67767;45.636;11.756;2023-03-01T10:18:02;8.63;;;3.85;;
73136;SDS011;67767;45.636;11.756;2023-03-01T10:20:43;8.93;;;3.22;;
73136;SDS011;67767;45.636;11.756;2023-03-01T10:23:18;8.10;;;3.38;;
73136;SDS011;67767;45.636;11.756;2023-03-01T10:31:46;10.13;;;3.40;;
73136;SDS011;67767;45.636;11.756;2023-03-01T10:34:21;10.45;;;4.32;;
73136;SDS011;67767;45.636;11.756;2023-03-01T10:36:57;10.27;;;3.65;;
73136;SDS011;67767;45.636;11.756;2023-03-01T10:39:33;6.67;;;3.20;;
73136;SDS011;67767;45.636;11.756;2023-03-01T10:42:22;9.75;;;3.60;;
73136;SDS011;67767;45.636;11.756;2023-03-01T10:44:55;8.50;;;3.38;;
73136;SDS011;67767;45.636;11.756;2023-03-01T10:47:25;8.90;;;3.07;;
73136;SDS011;67767;45.636;11.756;2023-03-01T10:50:03;8.68;;;3.30;;
73136;SDS011;67767;45.636;11.756;2023-03-01T10:52:32;8.70;;;3.42;;
73136;SDS011;67767;45.636;11.756;2023-03-01T10:57:38;14.27;;;4.13;;
73136;SDS011;67767;45.636;11.756;2023-03-01T11:00:15;7.28;;;3.20;;
73136;SDS011;67767;45.636;11.756;2023-03-01T11:02:47;9.82;;;5.10;;
73136;SDS011;67767;45.636;11.756;2023-03-01T11:07:48;9.20;;;3.42;;
73136;SDS011;67767;45.636;11.756;2023-03-01T11:10:25;10.70;;;3.77;;
73136;SDS011;67767;45.636;11.756;2023-03-01T11:13:08;10.60;;;3.75;;
73136;SDS011;67767;45.636;11.756;2023-03-01T11:15:40;12.05;;;4.07;;
73136;SDS011;67767;45.636;11.756;2023-03-01T11:18:19;12.55;;;4.20;;
73136;SDS011;67767;45.636;11.756;2023-03-01T11:20:46;10.85;;;4.15;;
73136;SDS011;67767;45.636;11.756;2023-03-01T11:23:16;8.73;;;3.87;;
73136;SDS011;67767;45.636;11.756;2023-03-01T11:25:43;12.60;;;4.28;;
73136;SDS011;67767;45.636;11.756;2023-03-01T11:28:16;12.15;;;4.43;;
73136;SDS011;67767;45.636;11.756;2023-03-01T11:33:46;9.98;;;3.30;;
73136;SDS011;67767;45.636;11.756;2023-03-01T11:39:02;12.65;;;3.03;;
73136;SDS011;67767;45.636;11.756;2023-03-01T11:41:43;12.50;;;3.70;;
73136;SDS011;67767;45.636;11.756;2023-03-01T11:44:18;14.20;;;2.97;;
73136;SDS011;67767;45.636;11.756;2023-03-01T11:46:52;9.52;;;3.35;;
73136;SDS011;67767;45.636;11.756;2023-03-01T11:49:41;10.43;;;3.27;;
73136;SDS011;67767;45.636;11.756;2023-03-01T12:13:51;8.50;;;3.30;;
73136;SDS011;67767;45.636;11.756;2023-03-01T12:19:13;9.50;;;2.55;;
73136;SDS011;67767;45.636;11.756;2023-03-01T12:21:51;10.02;;;3.70;;
73136;SDS011;67767;45.636;11.756;2023-03-01T12:35:16;9.10;;;3.05;;
73136;SDS011;67767;45.636;11.756;2023-03-01T12:51:54;11.23;;;3.17;;
73136;SDS011;67767;45.636;11.756;2023-03-01T12:54:26;11.48;;;3.60;;
73136;SDS011;67767;45.636;11.756;2023-03-01T12:57:01;11.18;;;3.40;;
73136;SDS011;67767;45.636;11.756;2023-03-01T13:02:52;9.32;;;3.10;;
73136;SDS011;67767;45.636;11.756;2023-03-01T13:05:42;12.17;;;3.40;;
73136;SDS011;67767;45.636;11.756;2023-03-01T13:11:02;10.38;;;3.70;;
73136;SDS011;67767;45.636;11.756;2023-03-01T13:13:30;12.70;;;3.78;;
73136;SDS011;67767;45.636;11.756;2023-03-01T13:15:57;11.40;;;4.80;;
73136;SDS011;67767;45.636;11.756;2023-03-01T13:18:43;9.10;;;3.50;;
73136;SDS011;67767;45.636;11.756;2023-03-01T13:21:08;13.43;;;4.22;;
73136;SDS011;67767;45.636;11.756;2023-03-01T13:23:35;11.68;;;4.18;;
73136;SDS011;67767;45.636;11.756;2023-03-01T13:26:08;9.83;;;3.90;;
73136;SDS011;67767;45.636;11.756;2023-03-01T13:31:56;11.70;;;3.95;;
73136;SDS011;67767;45.636;11.756;2023-03-01T13:33:57;12.00;;;4.35;;
73136;SDS011;67767;45.636;11.756;2023-03-01T13:39:00;12.50;;;5.10;;
73136;SDS011;67767;45.636;11.756;2023-03-01T13:44:22;13.98;;;5.30;;
73136;SDS011;67767;45.636;11.756;2023-03-01T13:46:57;13.65;;;5.25;;
73136;SDS011;67767;45.636;11.756;2023-03-01T13:49:42;8.52;;;3.85;;
73136;SDS011;67767;45.636;11.756;2023-03-01T13:57:39;13.77;;;5.30;;
73136;SDS011;67767;45.636;11.756;2023-03-01T14:00:07;11.55;;;4.60;;
73136;SDS011;67767;45.636;11.756;2023-03-01T14:03:32;16.77;;;6.60;;
73136;SDS011;67767;45.636;11.756;2023-03-01T14:05:44;19.20;;;7.33;;
73136;SDS011;67767;45.636;11.756;2023-03-01T14:08:28;13.15;;;5.10;;
73136;SDS011;67767;45.636;11.756;2023-03-01T14:16:56;15.52;;;7.05;;
73136;SDS011;67767;45.636;11.756;2023-03-01T14:19:29;15.60;;;5.50;;
73136;SDS011;67767;45.636;11.756;2023-03-01T14:22:17;16.83;;;7.55;;
73136;SDS011;67767;45.636;11.756;2023-03-01T14:24:49;16.80;;;6.60;;
73136;SDS011;67767;45.636;11.756;2023-03-01T14:27:24;14.88;;;6.38;;
73136;SDS011;67767;45.636;11.756;2023-03-01T14:30:18;17.70;;;6.70;;
73136;SDS011;67767;45.636;11.756;2023-03-01T14:32:59;12.37;;;4.23;;
73136;SDS011;67767;45.636;11.756;2023-03-01T14:35:28;12.20;;;4.35;;
73136;SDS011;67767;45.636;11.756;2023-03-01T14:37:56;12.65;;;5.35;;
73136;SDS011;67767;45.636;11.756;2023-03-01T14:40:33;12.50;;;5.88;;
73136;SDS011;67767;45.636;11.756;2023-03-01T14:43:03;12.25;;;4.57;;
73136;SDS011;67767;45.636;11.756;2023-03-01T14:45:35;10.87;;;5.17;;
73136;SDS011;67767;45.636;11.756;2023-03-01T14:48:02;13.25;;;5.00;;
73136;SDS011;67767;45.636;11.756;2023-03-01T14:50:31;13.07;;;5.50;;
73136;SDS011;67767;45.636;11.756;2023-03-01T14:53:03;12.13;;;5.18;;
73136;SDS011;67767;45.636;11.756;2023-03-01T14:58:04;17.88;;;8.20;;
73136;SDS011;67767;45.636;11.756;2023-03-01T15:00:31;21.45;;;10.38;;
73136;SDS011;67767;45.636;11.756;2023-03-01T15:03:00;19.02;;;9.02;;
73136;SDS011;67767;45.636;11.756;2023-03-01T15:05:34;16.80;;;8.65;;
73136;SDS011;67767;45.636;11.756;2023-03-01T15:08:02;18.30;;;9.70;;
73136;SDS011;67767;45.636;11.756;2023-03-01T15:10:34;20.27;;;10.05;;
73136;SDS011;67767;45.636;11.756;2023-03-01T15:13:14;17.75;;;9.02;;
73136;SDS011;67767;45.636;11.756;2023-03-01T15:15:50;17.83;;;10.32;;
73136;SDS011;67767;45.636;11.756;2023-03-01T15:18:37;12.32;;;5.95;;
73136;SDS011;67767;45.636;11.756;2023-03-01T15:21:19;10.53;;;5.13;;
73136;SDS011;67767;45.636;11.756;2023-03-01T15:23:54;13.88;;;5.13;;
73136;SDS011;67767;45.636;11.756;2023-03-01T15:26:29;10.55;;;4.90;;
73136;SDS011;67767;45.636;11.756;2023-03-01T15:28:58;12.90;;;5.18;;
73136;SDS011;67767;45.636;11.756;2023-03-01T15:31:26;14.95;;;6.22;;
73136;SDS011;67767;45.636;11.756;2023-03-01T15:34:34;13.13;;;5.10;;
73136;SDS011;67767;45.636;11.756;2023-03-01T15:36:57;11.73;;;5.30;;
73136;SDS011;67767;45.636;11.756;2023-03-01T15:39:41;12.00;;;5.00;;
73136;SDS011;67767;45.636;11.756;2023-03-01T15:42:36;11.05;;;4.68;;
73136;SDS011;67767;45.636;11.756;2023-03-01T15:47:54;10.10;;;4.70;;
73136;SDS011;67767;45.636;11.756;2023-03-01T15:50:31;11.75;;;5.07;;
73136;SDS011;67767;45.636;11.756;2023-03-01T15:52:59;11.48;;;5.30;;
73136;SDS011;67767;45.636;11.756;2023-03-01T15:55:27;15.23;;;5.43;;
73136;SDS011;67767;45.636;11.756;2023-03-01T15:58:14;11.02;;;5.35;;
73136;SDS011;67767;45.636;11.756;2023-03-01T16:00:42;13.23;;;5.80;;
73136;SDS011;67767;45.636;11.756;2023-03-01T16:03:10;12.15;;;5.80;;
73136;SDS011;67767;45.636;11.756;2023-03-01T16:05:36;11.82;;;6.22;;
73136;SDS011;67767;45.636;11.756;2023-03-01T16:08:03;12.35;;;5.43;;
73136;SDS011;67767;45.636;11.756;2023-03-01T16:10:31;12.77;;;6.03;;
73136;SDS011;67767;45.636;11.756;2023-03-01T16:12:57;11.77;;;4.30;;
73136;SDS011;67767;45.636;11.756;2023-03-01T16:15:27;11.23;;;5.20;;
73136;SDS011;67767;45.636;11.756;2023-03-01T16:17:54;7.25;;;2.95;;
73136;SDS011;67767;45.636;11.756;2023-03-01T16:20:22;8.05;;;3.15;;
73136;SDS011;67767;45.636;11.756;2023-03-01T16:22:49;6.33;;;2.20;;
73136;SDS011;67767;45.636;11.756;2023-03-01T16:25:16;7.18;;;2.00;;
73136;SDS011;67767;45.636;11.756;2023-03-01T16:27:43;6.72;;;2.53;;
73136;SDS011;67767;45.636;11.756;2023-03-01T16:30:11;6.07;;;2.33;;
73136;SDS011;67767;45.636;11.756;2023-03-01T16:32:41;6.83;;;2.50;;
73136;SDS011;67767;45.636;11.756;2023-03-01T16:35:09;7.65;;;3.05;;
73136;SDS011;67767;45.636;11.756;2023-03-01T16:37:36;8.73;;;3.10;;
73136;SDS011;67767;45.636;11.756;2023-03-01T16:40:03;7.97;;;2.50;;
73136;SDS011;67767;45.636;11.756;2023-03-01T16:42:34;10.13;;;2.92;;